Ballerina — SKNY — position and weather

sailwx.info

Track history (hours):
 
Tides and Currents Weather Stations Pressure Air Temp Water Temp Dewpoint Dewpoint Depression Visibility Wind Speed Wind Dir Waves Ship Positions

Ballerina

Last reported at 2017-Mar-30 16:33 UTC. Time now 2017-Mar-30 16:46 UTC.
Position N 59°19' E 018°06'.

Type: Passenger vessel. MMSI: 265550720.

Date/timePositionNaut miles runAvg speedWind from/ knotsBaromVisibWave heightAir tempDewpointWater temp
2017-Mar-30 16:33N 59°19' E 018°06'2 1.8
2017-Mar-30 15:33N 59°20' E 018°09'2 1.8
2017-Mar-30 14:33N 59°19' E 018°06'2 1.6
2017-Mar-30 13:33N 59°19' E 018°10'2 1.7
2017-Mar-30 12:33N 59°19' E 018°06'1 0.9
2017-Mar-30 11:22N 59°20' E 018°05'2 2.3
2017-Mar-30 10:33N 59°19' E 018°08'0 0.0
2017-Mar-30 09:33N 59°19' E 018°08'0 0.1
2017-Mar-30 08:33N 59°19' E 018°08'1 1.0
2017-Mar-30 07:33N 59°19' E 018°06'1 1.5
2017-Mar-30 06:33N 59°19' E 018°09'1 0.6
2017-Mar-30 05:33N 59°19' E 018°08'0 0.3
2017-Mar-30 04:33N 59°19' E 018°09'0 0.0
2017-Mar-29 17:32N 59°19' E 018°10'2 1.6
2017-Mar-29 16:33N 59°19' E 018°07'2 1.7
2017-Mar-29 15:32N 59°20' E 018°09'2 1.8
2017-Mar-29 14:33N 59°19' E 018°06'2 1.6
2017-Mar-29 13:34N 59°19' E 018°10'2 1.8
2017-Mar-29 12:27N 59°19' E 018°06'1 0.1
2017-Mar-29 08:18N 59°20' E 018°05'0 0.0
2017-Mar-29 07:31N 59°20' E 018°05'2 2.4
2017-Mar-29 06:33N 59°20' E 018°09'2 1.9
2017-Mar-29 05:24N 59°20' E 018°05'0 0.4
2017-Mar-29 04:33N 59°20' E 018°05'2 0.2
2017-Mar-28 17:19N 59°20' E 018°09'2 2.5
2017-Mar-28 16:28N 59°20' E 018°05'1 0.4
2017-Mar-28 14:33N 59°19' E 018°06'2 1.6
2017-Mar-28 13:33N 59°19' E 018°10'2 1.7
2017-Mar-28 12:33N 59°19' E 018°06'1 0.9
2017-Mar-28 11:28N 59°20' E 018°05'0 0.0
2017-Mar-28 08:16N 59°20' E 018°05'0 0.0
2017-Mar-28 07:31N 59°20' E 018°05'2 2.5
2017-Mar-28 06:33N 59°20' E 018°09'2 2.2
2017-Mar-28 05:33N 59°20' E 018°05'0 0.1
2017-Mar-28 04:33N 59°20' E 018°05'0 0.0
2017-Mar-27 18:06N 59°20' E 018°05'2 3.3
2017-Mar-27 17:33N 59°19' E 018°08'1 0.9
2017-Mar-27 16:33N 59°19' E 018°07'2 1.6
2017-Mar-27 15:33N 59°20' E 018°09'2 1.7
2017-Mar-27 14:33N 59°19' E 018°06'2 1.6
2017-Mar-27 13:33N 59°19' E 018°10'2 1.6
2017-Mar-27 12:34N 59°19' E 018°06'1 1.1
2017-Mar-27 11:34N 59°20' E 018°05'0 0.0
2017-Mar-27 10:34N 59°20' E 018°05'0 0.0
2017-Mar-27 09:31N 59°20' E 018°05'0 0.0
2017-Mar-27 08:34N 59°20' E 018°05'0 0.2
2017-Mar-27 07:33N 59°20' E 018°05'2 2.3
2017-Mar-27 06:33N 59°20' E 018°09'2 2.1
2017-Mar-27 05:33N 59°20' E 018°05'0 0.1
2017-Mar-27 04:33N 59°20' E 018°05'  
2017-Mar-24 18:33N 59°20' E 018°05'0 0.0
2017-Mar-24 17:33N 59°20' E 018°05'2 2.3
2017-Mar-24 16:31N 59°20' E 018°09'2 2.5
2017-Mar-24 15:33N 59°20' E 018°05'2 1.9
2017-Mar-24 14:33N 59°21' E 018°08'2 1.8
2017-Mar-24 13:33N 59°20' E 018°05'0 0.0
2017-Mar-24 10:25N 59°20' E 018°05'1 0.6
2017-Mar-24 08:33N 59°19' E 018°07'1 1.4
2017-Mar-24 07:31N 59°19' E 018°10'1 0.8
2017-Mar-24 06:33N 59°19' E 018°08'0 0.1
2017-Mar-24 05:33N 59°19' E 018°08'2 0.1
2017-Mar-23 10:25N 59°20' E 018°05'0 0.6
2017-Mar-23 09:33N 59°19' E 018°06'0 0.5
2017-Mar-23 08:31N 59°20' E 018°05'0 0.0
2017-Mar-23 06:17N 59°20' E 018°05'2 0.1
2017-Mar-22 09:33N 59°19' E 018°09'1 0.0
2017-Mar-21 06:33N 59°19' E 018°08'1 0.1
2017-Mar-20 19:33N 59°20' E 018°05'0 0.1
2017-Mar-20 18:33N 59°20' E 018°05'2 2.2
2017-Mar-20 17:32N 59°19' E 018°10'2 1.6
2017-Mar-20 16:33N 59°19' E 018°07'  
Track history (hours):
 
Tides and Currents Weather Stations Pressure Air Temp Water Temp Dewpoint Dewpoint Depression Visibility Wind Speed Wind Dir Waves Ship Positions

Ballerina

Last reported at 2017-Mar-30 16:33 UTC. Time now 2017-Mar-30 16:46 UTC.
Position N 59°19' E 018°06'.

Type: Passenger vessel. MMSI: 265550720.

Date/timePositionNaut miles runAvg speedWind from/ knotsBaromVisibWave heightAir tempDewpointWater temp
2017-Mar-30 16:33N 59°19' E 018°06'2 1.8
2017-Mar-30 15:33N 59°20' E 018°09'2 1.8
2017-Mar-30 14:33N 59°19' E 018°06'2 1.6
2017-Mar-30 13:33N 59°19' E 018°10'2 1.7
2017-Mar-30 12:33N 59°19' E 018°06'1 0.9
2017-Mar-30 11:22N 59°20' E 018°05'2 2.3
2017-Mar-30 10:33N 59°19' E 018°08'0 0.0
2017-Mar-30 09:33N 59°19' E 018°08'0 0.1
2017-Mar-30 08:33N 59°19' E 018°08'1 1.0
2017-Mar-30 07:33N 59°19' E 018°06'1 1.5
2017-Mar-30 06:33N 59°19' E 018°09'1 0.6
2017-Mar-30 05:33N 59°19' E 018°08'0 0.3
2017-Mar-30 04:33N 59°19' E 018°09'0 0.0
2017-Mar-29 17:32N 59°19' E 018°10'2 1.6
2017-Mar-29 16:33N 59°19' E 018°07'2 1.7
2017-Mar-29 15:32N 59°20' E 018°09'2 1.8
2017-Mar-29 14:33N 59°19' E 018°06'2 1.6
2017-Mar-29 13:34N 59°19' E 018°10'2 1.8
2017-Mar-29 12:27N 59°19' E 018°06'1 0.1
2017-Mar-29 08:18N 59°20' E 018°05'0 0.0
2017-Mar-29 07:31N 59°20' E 018°05'2 2.4
2017-Mar-29 06:33N 59°20' E 018°09'2 1.9
2017-Mar-29 05:24N 59°20' E 018°05'0 0.4
2017-Mar-29 04:33N 59°20' E 018°05'2 0.2
2017-Mar-28 17:19N 59°20' E 018°09'2 2.5
2017-Mar-28 16:28N 59°20' E 018°05'1 0.4
2017-Mar-28 14:33N 59°19' E 018°06'2 1.6
2017-Mar-28 13:33N 59°19' E 018°10'2 1.7
2017-Mar-28 12:33N 59°19' E 018°06'1 0.9
2017-Mar-28 11:28N 59°20' E 018°05'0 0.0
2017-Mar-28 08:16N 59°20' E 018°05'0 0.0
2017-Mar-28 07:31N 59°20' E 018°05'2 2.5
2017-Mar-28 06:33N 59°20' E 018°09'2 2.2
2017-Mar-28 05:33N 59°20' E 018°05'0 0.1
2017-Mar-28 04:33N 59°20' E 018°05'0 0.0
2017-Mar-27 18:06N 59°20' E 018°05'2 3.3
2017-Mar-27 17:33N 59°19' E 018°08'1 0.9
2017-Mar-27 16:33N 59°19' E 018°07'2 1.6
2017-Mar-27 15:33N 59°20' E 018°09'2 1.7
2017-Mar-27 14:33N 59°19' E 018°06'2 1.6
2017-Mar-27 13:33N 59°19' E 018°10'2 1.6
2017-Mar-27 12:34N 59°19' E 018°06'1 1.1
2017-Mar-27 11:34N 59°20' E 018°05'0 0.0
2017-Mar-27 10:34N 59°20' E 018°05'0 0.0
2017-Mar-27 09:31N 59°20' E 018°05'0 0.0
2017-Mar-27 08:34N 59°20' E 018°05'0 0.2
2017-Mar-27 07:33N 59°20' E 018°05'2 2.3
2017-Mar-27 06:33N 59°20' E 018°09'2 2.1
2017-Mar-27 05:33N 59°20' E 018°05'0 0.1
2017-Mar-27 04:33N 59°20' E 018°05'  
2017-Mar-24 18:33N 59°20' E 018°05'0 0.0
2017-Mar-24 17:33N 59°20' E 018°05'2 2.3
2017-Mar-24 16:31N 59°20' E 018°09'2 2.5
2017-Mar-24 15:33N 59°20' E 018°05'2 1.9
2017-Mar-24 14:33N 59°21' E 018°08'2 1.8
2017-Mar-24 13:33N 59°20' E 018°05'0 0.0
2017-Mar-24 10:25N 59°20' E 018°05'1 0.6
2017-Mar-24 08:33N 59°19' E 018°07'1 1.4
2017-Mar-24 07:31N 59°19' E 018°10'1 0.8
2017-Mar-24 06:33N 59°19' E 018°08'0 0.1
2017-Mar-24 05:33N 59°19' E 018°08'2 0.1
2017-Mar-23 10:25N 59°20' E 018°05'0 0.6
2017-Mar-23 09:33N 59°19' E 018°06'0 0.5
2017-Mar-23 08:31N 59°20' E 018°05'0 0.0
2017-Mar-23 06:17N 59°20' E 018°05'2 0.1
2017-Mar-22 09:33N 59°19' E 018°09'1 0.0
2017-Mar-21 06:33N 59°19' E 018°08'1 0.1
2017-Mar-20 19:33N 59°20' E 018°05'0 0.1
2017-Mar-20 18:33N 59°20' E 018°05'2 2.2
2017-Mar-20 17:32N 59°19' E 018°10'2 1.6
2017-Mar-20 16:33N 59°19' E 018°07'  

Dump ship's entire track history